• Join FlightAware (Why Join?)
  • Login
  • US Flag 
09:07AM EDT


 

Airport Tracker/Info


-or-


 

Live Flight TrackerFlight Track Log ✈ TRS423 ✈ 27-May-2013 ✈ KMCO - KPHL

Flight Track Log - Related Links

Times and Time Zones

All times are in EDT time to prevent confusion due to time zone crossing. See the TRS423 flight status page for this flight to view local times or setup timezone preferences in your user account.

Time Position Orientation Groundspeed Altitude Reporting Facility
EDT Latitude Longitude Course Direction KTS MPH feet Rate Location/Type
02:35PM 28.4167 -81.3000 156° South 155 178 800  Level Orlando TRACON
02:35PM 28.3833 -81.2833 156° South 183 211 1,900 1,680 Climbing Orlando TRACON
02:36PM 28.3500 -81.2167 120° Southeast 256 295 3,500 2,040 Climbing Orlando TRACON
02:37PM 28.3667 -81.1500 74° East 285 328 6,100 2,580 Climbing Orlando TRACON
02:38PM 28.4500 -81.1667 350° North 299 344 9,000 2,040 Climbing Orlando TRACON
02:40PM 28.6400 -81.2297 344° North 342 394 12,600 1,920 Climbing Jacksonville Center
02:41PM 28.7406 -81.2658 343° North 366 421 15,000 2,220 Climbing Jacksonville Center
02:42PM 28.8475 -81.3019 344° North 385 443 17,100 1,860 Climbing Jacksonville Center
02:43PM 28.9544 -81.3406 342° North 390 449 18,800 1,800 Climbing Jacksonville Center
02:44PM 29.0675 -81.3769 344° North 406 467 20,800 1,800 Climbing Jacksonville Center
02:45PM 29.1828 -81.4014 350° North 411 473 22,400 1,500 Climbing Jacksonville Center
02:46PM 29.3039 -81.4114 356° North 416 479 23,800 1,260 Climbing Jacksonville Center
02:47PM 29.4292 -81.4094 North 432 497 25,000 1,200 Climbing Jacksonville Center
02:48PM 29.5544 -81.4122 359° North 442 509 26,300 1,140 Climbing Jacksonville Center
02:49PM 29.6797 -81.4153 359° North 442 509 27,300 1,080 Climbing Jacksonville Center
02:50PM 29.8092 -81.4206 358° North 448 516 28,500 1,200 Climbing Jacksonville Center
02:51PM 29.9406 -81.4186 North 459 528 29,800 1,260 Climbing Jacksonville Center
02:53PM 30.0569 -81.4596 North  Level FlightAware Approximate
02:53PM 30.1975 -81.4217 North 459 528 32,400  Level Jacksonville Center
02:54PM 30.3250 -81.4247 359° North 459 528 33,000 300 Climbing Jacksonville Center
02:55PM 30.4375 -81.4253 360° North 459 528 33,000  Level Jacksonville Center
02:56PM 30.5631 -81.4283 359° North 459 528 33,000  Level Jacksonville Center
02:57PM 30.6878 -81.3972 12° North 459 528 33,000  Level Jacksonville Center
02:58PM 30.7975 -81.3181 32° Northeast 448 516 33,000  Level Jacksonville Center
02:59PM 30.9072 -81.2389 32° Northeast 448 516 33,000  Level Jacksonville Center
03:00PM 31.0169 -81.1617 31° Northeast 453 521 33,000  Level Jacksonville Center
03:01PM 31.1242 -81.0797 33° Northeast 453 521 33,000  Level Jacksonville Center
03:02PM 31.2339 -81.0022 31° Northeast 459 528 33,000  Level Jacksonville Center
03:03PM 31.3514 -80.9122 33° Northeast 454 522 33,000  Level Jacksonville Center
03:04PM 31.4483 -80.8397 33° Northeast 454 522 33,000  Level Jacksonville Center
03:05PM 31.5558 -80.7642 31° Northeast 448 516 33,000  Level Jacksonville Center
03:06PM 31.6753 -80.6736 33° Northeast 454 522 33,000  Level Jacksonville Center
03:07PM 31.7722 -80.6053 31° Northeast 448 516 33,000  Level Jacksonville Center
03:08PM 31.8894 -80.5142 33° Northeast 453 521 33,000 -60 Level Jacksonville Center
03:09PM 31.9944 -80.4331 33° Northeast 453 521 32,900  Descending Jacksonville Center
03:10PM 32.1014 -80.3542 32° Northeast 453 521 33,000  Climbing Jacksonville Center
03:11PM 32.2083 -80.2753 32° Northeast 453 521 33,000  Level Jacksonville Center
03:12PM 32.3131 -80.1936 33° Northeast 453 521 33,000  Level Jacksonville Center
03:13PM 32.4219 -80.1139 32° Northeast 453 521 33,000  Level Jacksonville Center
03:14PM 32.5267 -80.0344 33° Northeast 453 521 33,000  Level Jacksonville Center
03:15PM 32.6314 -79.9497 34° Northeast 453 521 33,000  Level Jacksonville Center
03:16PM 32.7356 -79.8625 35° Northeast 453 521 33,000  Level Jacksonville Center
03:17PM 32.8378 -79.7750 36° Northeast 453 521 33,000  Level Jacksonville Center
03:18PM 32.9422 -79.6872 35° Northeast 453 521 33,000  Level Jacksonville Center
03:19PM 33.0444 -79.6017 35° Northeast 458 527 33,000  Level Jacksonville Center
03:20PM 33.1483 -79.5136 35° Northeast 458 527 33,000 -60 Level Jacksonville Center
03:21PM 33.2422 -79.4331 36° Northeast 458 527 32,900  Descending Jacksonville Center
03:22PM 33.3461 -79.3419 36° Northeast 458 527 33,000  Climbing Jacksonville Center
03:23PM 33.4481 -79.2558 35° Northeast 458 527 33,000  Level Jacksonville Center
03:24PM 33.5519 -79.1667 36° Northeast 458 527 33,000  Level Jacksonville Center
03:25PM 33.6617 -79.0722 36° Northeast 453 521 33,000  Level Jacksonville Center
03:26PM 33.7675 -78.9828 35° Northeast 453 521 33,000  Level Jacksonville Center
03:29PM 34.0064 -78.7733 36° Northeast 464 534 33,000 -60 Level Washington Center
03:30PM 34.1089 -78.6869 35° Northeast 464 534 32,900  Descending Washington Center
03:31PM 34.2092 -78.5978 36° Northeast 459 528 33,000  Climbing Washington Center
03:32PM 34.3136 -78.5061 36° Northeast 454 522 33,000  Level Washington Center
03:33PM 34.4075 -78.4264 35° Northeast 459 528 33,000 -60 Level Washington Center
03:34PM 34.5097 -78.3342 37° Northeast 459 528 32,900  Descending Washington Center
03:35PM 34.6161 -78.2417 36° Northeast 459 528 33,000  Climbing Washington Center
03:36PM 34.7203 -78.1492 36° Northeast 459 528 33,000  Level Washington Center
03:37PM 34.8206 -78.0536 38° Northeast 459 528 33,000  Level Washington Center
03:38PM 34.9244 -77.9606 36° Northeast 464 534 33,000  Level Washington Center
03:39PM 35.0244 -77.8722 36° Northeast 464 534 33,000  Level Washington Center
03:40PM 35.1283 -77.7786 36° Northeast 458 527 33,000  Level Washington Center
03:41PM 35.2322 -77.6847 36° Northeast 458 527 33,000  Level Washington Center
03:42PM 35.3339 -77.5933 36° Northeast 458 527 33,000  Level Washington Center
03:43PM 35.4356 -77.5014 36° Northeast 458 527 33,000  Level Washington Center
03:44PM 35.5414 -77.4094 35° Northeast 458 527 33,000  Level Washington Center
03:45PM 35.6428 -77.3197 36° Northeast 458 527 33,000  Level Washington Center
03:46PM 35.7483 -77.2300 35° Northeast 458 527 33,000  Level Washington Center
03:47PM 35.8519 -77.1397 35° Northeast 453 521 33,000  Level Washington Center
03:48PM 35.9594 -77.0392 37° Northeast 448 516 33,000  Level Washington Center
03:49PM 36.0608 -76.9436 37° Northeast 453 521 33,000  Level Washington Center
03:50PM 36.1703 -76.8503 35° Northeast 460 529 33,000  Level Washington Center
03:51PM 36.2756 -76.7564 36° Northeast 460 529 33,000  Level Washington Center
03:52PM 36.3828 -76.6628 35° Northeast 460 529 33,000  Level Washington Center
03:53PM 36.4942 -76.5789 31° Northeast 460 529 33,000  Level Washington Center
03:54PM 36.6075 -76.4975 30° Northeast 460 529 33,000  Level Washington Center
03:55PM 36.7206 -76.4186 29° Northeast 465 535 33,000 -360 Level Washington Center
03:56PM 36.8358 -76.3367 30° Northeast 465 535 32,300 -780 Descending Washington Center
03:57PM 36.9492 -76.2597 28° Northeast 465 535 31,500 -780 Descending Washington Center
03:58PM 37.0642 -76.1750 30° Northeast 465 535 30,800 -660 Descending Washington Center
03:59PM 37.1731 -76.1053 27° Northeast 465 535 30,200 -720 Descending Washington Center
04:00PM 37.2881 -76.0225 30° Northeast 470 541 29,400 -660 Descending Washington Center
04:01PM 37.4008 -75.9422 29° Northeast 470 541 29,000 -540 Descending Washington Center
04:02PM 37.5158 -75.8614 29° Northeast 465 535 28,400 -960 Descending Washington Center
04:03PM 37.6308 -75.7781 30° Northeast 465 535 27,100 -1,200 Descending Washington Center
04:04PM 37.7436 -75.6994 29° Northeast 465 535 26,100 -1,020 Descending Washington Center
04:05PM 37.8542 -75.6156 31° Northeast 458 527 25,100 -1,020 Descending Washington Center
04:06PM 37.9686 -75.5364 29° Northeast 463 533 24,100 -1,080 Descending Washington Center
04:07PM 38.0792 -75.4572 29° Northeast 463 533 23,000 -600 Descending Washington Center
04:08PM 38.1939 -75.3856 26° Northeast 453 521 23,000 -240 Level Washington Center
04:09PM 38.3064 -75.3192 25° Northeast 447 514 22,600 -1,500 Descending Washington Center
04:10PM 38.4103 -75.2419 30° Northeast 438 504 20,100 -2,400 Descending Washington Center
04:11PM 38.5081 -75.1831 25° Northeast 407 468 17,900 -2,460 Descending Washington Center
04:12PM 38.6017 -75.1214 27° Northeast 381 438 15,100 -1,440 Descending Washington Center
04:13PM 38.6889 -75.0650 27° Northeast 364 419 15,000 -240 Descending Washington Center
04:14PM 38.7764 -75.0086 27° Northeast 352 405 14,700 -1,260 Descending Washington Center
04:15PM 38.8614 -74.9544 26° Northeast 341 392 12,600 -1,800 Descending Washington Center
04:16PM 38.9467 -74.9003 26° Northeast 336 387 11,100 -840 Descending Washington Center
04:17PM 39.0256 -74.8489 27° Northeast 330 380 11,000 -60 Descending Washington Center
04:18PM 39.1128 -74.8078 20° North 325 374 11,000 -360 Level Washington Center
04:19PM 39.2500 -74.8500 347° North 273 314 10,200 -600 Descending Philadelphia TRACON
04:20PM 39.3167 -74.8833 339° North 275 316 9,500 -600 Descending Philadelphia TRACON
04:21PM 39.4000 -74.9167 343° North 273 314 9,000 -300 Descending Philadelphia TRACON
04:22PM 39.4667 -74.9333 349° North 271 312 8,900  Descending Philadelphia TRACON
04:23PM 39.5167 -74.9667 333° Northwest 221 254 9,000 -420 Climbing Philadelphia TRACON
04:24PM 39.5500 -75.0167 311° West 229 264 8,200 -960 Descending Philadelphia TRACON
04:25PM 39.5000 -75.0833 226° Southwest 231 266 7,100 -600 Descending Philadelphia TRACON
04:26PM 39.4833 -75.1500 252° West 210 242 7,000 -600 Descending Philadelphia TRACON
04:27PM 39.5000 -75.2167 288° West 216 249 6,000 -540 Descending Philadelphia TRACON
04:28PM 39.5500 -75.2000 14° North 235 270 6,000 -60 Level Philadelphia TRACON
04:29PM 39.6000 -75.1333 46° Northeast 235 270 5,900  Descending Philadelphia TRACON
04:30PM 39.6667 -75.1000 21° North 234 269 6,000  Climbing Philadelphia TRACON
04:31PM 39.7167 -75.0500 38° Northeast 237 273 5,900  Descending Philadelphia TRACON
04:32PM 39.7667 -75.0000 38° Northeast 233 268 6,000  Climbing Philadelphia TRACON
04:33PM 39.8167 -74.9500 38° Northeast 231 266 6,000 -600 Level Philadelphia TRACON
04:34PM 39.8500 -74.8833 57° Northeast 240 276 4,900 -840 Descending Philadelphia TRACON
04:35PM 39.9000 -74.9000 346° North 214 246 4,400 -720 Descending Philadelphia TRACON
04:36PM 39.9167 -74.9667 288° West 207 238 3,500 -900 Descending Philadelphia TRACON
04:37PM 39.9167 -75.0500 270° West 208 239 2,700 -900 Descending Philadelphia TRACON
04:38PM 39.9000 -75.1167 252° West 205 236 1,700 -1,020 Descending Philadelphia TRACON
04:39PM 39.8833 -75.1833 252° West 146 168 700 -1,020 Descending Philadelphia TRACON